Time;durP1;ratioP1;P1;durP2;ratioP2;P2;SDS_P1;SDS_P2;PMS_P1;PMS_P2;Temp;Humidity;BMP_temperature;BMP_pressure;BME280_temperature;BME280_humidity;BME280_pressure;Samples;Min_cycle;Max_cycle;Signal;HPM_P1;HPM_P2
2024/04/20 00:01:15;;;;;;;;;;;;;;;;;;6780805;26;19932;-60
2024/04/20 00:04:20;;;;;;;;;;;;;;;;;;6779350;26;19932;-61
2024/04/20 00:07:26;;;;;;;;;;;;;;;;;;6781795;26;19955;-60
2024/04/20 00:10:31;;;;;;;;;;;;;;;;;;6787239;26;19952;-61
2024/04/20 00:13:37;;;;;;;;;;;;;;;;;;6826347;26;19951;-60
2024/04/20 00:16:47;;;;;;;;;;;;;;;;;;6827084;26;19924;-60
2024/04/20 00:19:52;;;;;;;;;;;;;;;;;;6826051;26;20012;-61
2024/04/20 00:22:57;;;;;;;;;;;;;;;;;;6826695;26;20718;-61
2024/04/20 00:26:04;;;;;;;;;;;;;;;;;;6781334;26;19925;-60
2024/04/20 00:29:09;;;;;;;;;;;;;;;;;;6781178;26;19924;-60
2024/04/20 00:32:17;;;;;;;;;;;;;;;;;;6781360;26;19924;-60
2024/04/20 00:35:23;;;;;;;;;;;;;;;;;;6780477;26;20074;-61
2024/04/20 00:38:29;;;;;;;;;;;;;;;;;;6780835;26;20326;-60
2024/04/20 00:41:34;;;;;;;;;;;;;;;;;;6780457;26;19924;-60
2024/04/20 00:44:39;;;;;;;;;;;;;;;;;;6780759;26;19932;-61
2024/04/20 00:47:47;;;;;;;;;;;;;;;;;;6781049;26;19954;-60
2024/04/20 00:50:53;;;;;;;;;;;;;;;;;;6779535;26;19924;-61
2024/04/20 00:53:58;;;;;;;;;;;;;;;;;;6780608;26;20141;-60
2024/04/20 00:57:04;;;;;;;;;;;;;;;;;;6779116;26;19925;-60
2024/04/20 01:00:10;;;;;;;;;;;;;;;;;;6781017;26;19925;-60
2024/04/20 01:03:18;;;;;;;;;;;;;;;;;;6780423;26;19924;-60
2024/04/20 01:06:23;;;;;;;;;;;;;;;;;;6780121;26;19928;-61
2024/04/20 01:09:28;;;;;;;;;;;;;;;;;;6780084;26;20337;-60
2024/04/20 01:12:35;;;;;;;;;;;;;;;;;;6817412;26;19924;-61
2024/04/20 01:15:41;;;;;;;;;;;;;;;;;;6792189;26;19951;-60
2024/04/20 01:18:48;;;;;;;;;;;;;;;;;;6825377;26;20149;-60
2024/04/20 01:21:54;;;;;;;;;;;;;;;;;;6825567;26;19935;-61
2024/04/20 01:24:59;;;;;;;;;;;;;;;;;;6793775;26;20129;-60
2024/04/20 01:28:07;;;;;;;;;;;;;;;;;;6779469;26;19935;-60
2024/04/20 01:31:13;;;;;;;;;;;;;;;;;;6779450;26;19924;-60
2024/04/20 01:34:18;;;;;;;;;;;;;;;;;;6778703;26;19924;-60
2024/04/20 01:37:23;;;;;;;;;;;;;;;;;;6748168;26;19931;-61
2024/04/20 01:40:28;;;;;;;;;;;;;;;;;;6778829;26;19932;-60
2024/04/20 01:43:36;;;;;;;;;;;;;;;;;;6779596;26;19924;-60
2024/04/20 01:46:42;;;;;;;;;;;;;;;;;;6780405;26;20021;-60
2024/04/20 01:49:47;;;;;;;;;;;;;;;;;;6779471;26;19925;-60
2024/04/20 01:52:52;;;;;;;;;;;;;;;;;;6748464;26;19924;-60
2024/04/20 01:55:57;;;;;;;;;;;;;;;;;;6779046;26;19928;-60
2024/04/20 01:59:06;;;;;;;;;;;;;;;;;;6779358;26;19932;-61
2024/04/20 02:02:11;;;;;;;;;;;;;;;;;;6779504;26;19931;-60
2024/04/20 02:05:16;;;;;;;;;;;;;;;;;;6779094;26;19932;-60
2024/04/20 02:08:22;;;;;;;;;;;;;;;;;;6779433;26;19948;-60
2024/04/20 02:11:27;;;;;;;;;;;;;;;;;;6797986;26;19924;-60
2024/04/20 02:14:35;;;;;;;;;;;;;;;;;;6823789;26;19924;-59
2024/04/20 02:17:40;;;;;;;;;;;;;;;;;;6824200;26;19924;-59
2024/04/20 02:20:45;;;;;;;;;;;;;;;;;;6822744;26;20136;-60
2024/04/20 02:23:51;;;;;;;;;;;;;;;;;;6809953;26;20245;-60
2024/04/20 02:26:56;;;;;;;;;;;;;;;;;;6777257;26;20125;-61
2024/04/20 02:30:04;;;;;;;;;;;;;;;;;;6783130;26;19985;-60
2024/04/20 02:33:09;;;;;;;;;;;;;;;;;;6782363;26;19928;-60
2024/04/20 02:36:14;;;;;;;;;;;;;;;;;;6782713;26;19947;-60
2024/04/20 02:39:19;;;;;;;;;;;;;;;;;;6783136;26;19925;-60
2024/04/20 02:42:25;;;;;;;;;;;;;;;;;;6783612;26;19924;-61
2024/04/20 02:45:32;;;;;;;;;;;;;;;;;;6782204;26;20117;-60
2024/04/20 02:48:38;;;;;;;;;;;;;;;;;;6782040;26;19954;-60
2024/04/20 02:51:45;;;;;;;;;;;;;;;;;;6782924;26;19925;-60
2024/04/20 02:54:50;;;;;;;;;;;;;;;;;;6782636;26;20015;-60
2024/04/20 02:57:56;;;;;;;;;;;;;;;;;;6782619;26;19924;-62
2024/04/20 03:01:04;;;;;;;;;;;;;;;;;;6782146;26;20102;-60
2024/04/20 03:04:10;;;;;;;;;;;;;;;;;;6804179;26;20017;-60
2024/04/20 03:07:15;;;;;;;;;;;;;;;;;;6798420;26;20754;-60
2024/04/20 03:10:21;;;;;;;;;;;;;;;;;;6791022;26;19923;-60
2024/04/20 03:13:26;;;;;;;;;;;;;;;;;;6826921;26;19931;-60
2024/04/20 03:16:34;;;;;;;;;;;;;;;;;;6828196;26;19924;-60
2024/04/20 03:19:39;;;;;;;;;;;;;;;;;;6805381;26;19933;-60
2024/04/20 03:22:44;;;;;;;;;;;;;;;;;;6780974;26;19932;-64
2024/04/20 03:25:50;;;;;;;;;;;;;;;;;;6825909;26;20123;-60
2024/04/20 03:28:55;;;;;;;;;;;;;;;;;;6826985;26;20324;-60
2024/04/20 03:32:03;;;;;;;;;;;;;;;;;;6795570;26;20113;-60
2024/04/20 03:35:08;;;;;;;;;;;;;;;;;;6826248;26;19924;-59
2024/04/20 03:38:13;;;;;;;;;;;;;;;;;;6781010;26;19924;-60
2024/04/20 03:41:19;;;;;;;;;;;;;;;;;;6781804;26;19925;-59
2024/04/20 03:44:24;;;;;;;;;;;;;;;;;;6780478;26;19935;-60
2024/04/20 03:47:32;;;;;;;;;;;;;;;;;;6781386;26;19925;-60
2024/04/20 03:50:37;;;;;;;;;;;;;;;;;;6780410;26;19924;-60
2024/04/20 03:53:42;;;;;;;;;;;;;;;;;;6780180;26;20121;-60
2024/04/20 03:56:48;;;;;;;;;;;;;;;;;;6781505;26;19935;-60
2024/04/20 03:59:53;;;;;;;;;;;;;;;;;;6780469;26;19924;-60
2024/04/20 04:03:01;;;;;;;;;;;;;;;;;;6779925;26;19948;-59
2024/04/20 04:06:07;;;;;;;;;;;;;;;;;;6748881;26;19955;-60
2024/04/20 04:09:12;;;;;;;;;;;;;;;;;;6780384;26;19924;-60
2024/04/20 04:12:17;;;;;;;;;;;;;;;;;;6824408;26;20163;-60
2024/04/20 04:15:23;;;;;;;;;;;;;;;;;;6826238;26;19924;-60
2024/04/20 04:18:30;;;;;;;;;;;;;;;;;;6825325;26;20119;-61
2024/04/20 04:21:36;;;;;;;;;;;;;;;;;;6826191;26;20171;-61
2024/04/20 04:24:41;;;;;;;;;;;;;;;;;;6799493;26;20118;-60
2024/04/20 04:27:46;;;;;;;;;;;;;;;;;;6780462;26;19924;-60
2024/04/20 04:30:52;;;;;;;;;;;;;;;;;;6781097;26;19931;-60
2024/04/20 04:33:59;;;;;;;;;;;;;;;;;;6780023;26;19949;-60
2024/04/20 04:37:05;;;;;;;;;;;;;;;;;;6780414;26;19925;-60
2024/04/20 04:40:11;;;;;;;;;;;;;;;;;;6779674;26;19929;-60
2024/04/20 04:43:16;;;;;;;;;;;;;;;;;;6779772;26;19948;-61
2024/04/20 04:46:21;;;;;;;;;;;;;;;;;;6781076;26;20287;-60
2024/04/20 04:49:29;;;;;;;;;;;;;;;;;;6779329;26;20139;-60
2024/04/20 04:52:35;;;;;;;;;;;;;;;;;;6780286;26;19924;-60
2024/04/20 04:55:41;;;;;;;;;;;;;;;;;;6779958;26;20122;-60
2024/04/20 04:58:47;;;;;;;;;;;;;;;;;;6778078;26;19944;-60
2024/04/20 05:01:53;;;;;;;;;;;;;;;;;;6779945;26;20138;-60
2024/04/20 05:05:02;;;;;;;;;;;;;;;;;;6779993;26;20122;-61
2024/04/20 05:08:08;;;;;;;;;;;;;;;;;;6779769;26;19924;-60
2024/04/20 05:11:13;;;;;;;;;;;;;;;;;;6807445;26;19931;-60
2024/04/20 05:14:18;;;;;;;;;;;;;;;;;;6824403;26;19999;-60
2024/04/20 05:17:23;;;;;;;;;;;;;;;;;;6825327;26;19924;-61
2024/04/20 05:20:31;;;;;;;;;;;;;;;;;;6824910;26;19924;-59
2024/04/20 05:23:37;;;;;;;;;;;;;;;;;;6814722;26;19924;-59
2024/04/20 05:26:42;;;;;;;;;;;;;;;;;;6779665;26;19932;-58
2024/04/20 05:29:47;;;;;;;;;;;;;;;;;;6778987;26;19924;-59
2024/04/20 05:32:55;;;;;;;;;;;;;;;;;;6779302;26;19931;-58
2024/04/20 05:36:07;;;;;;;;;;;;;;;;;;6780064;26;20350;-60
2024/04/20 05:39:13;;;;;;;;;;;;;;;;;;6779634;26;20311;-60
2024/04/20 05:42:18;;;;;;;;;;;;;;;;;;6780052;26;20077;-61
2024/04/20 05:45:26;;;;;;;;;;;;;;;;;;6779680;26;19943;-59
2024/04/20 05:48:33;;;;;;;;;;;;;;;;;;6778985;26;19932;-60
2024/04/20 05:51:41;;;;;;;;;;;;;;;;;;6779552;26;19924;-60
2024/04/20 05:54:46;;;;;;;;;;;;;;;;;;6779357;26;19925;-59
2024/04/20 05:57:53;;;;;;;;;;;;;;;;;;6779125;26;20121;-60
2024/04/20 06:00:58;;;;;;;;;;;;;;;;;;6779964;26;20098;-59
2024/04/20 06:04:04;;;;;;;;;;;;;;;;;;6778607;26;19924;-60
2024/04/20 06:07:12;;;;;;;;;;;;;;;;;;6780059;26;19925;-59
2024/04/20 06:10:17;;;;;;;;;;;;;;;;;;6791105;26;19935;-60
2024/04/20 06:13:23;;;;;;;;;;;;;;;;;;6822683;26;20245;-60
2024/04/20 06:16:28;;;;;;;;;;;;;;;;;;6824329;26;20098;-60
2024/04/20 06:19:33;;;;;;;;;;;;;;;;;;6823964;26;19924;-61
2024/04/20 06:22:41;;;;;;;;;;;;;;;;;;6824848;26;19932;-60
2024/04/20 06:25:47;;;;;;;;;;;;;;;;;;6781028;26;19924;-60
2024/04/20 06:28:52;;;;;;;;;;;;;;;;;;6778714;26;19925;-60
2024/04/20 06:31:57;;;;;;;;;;;;;;;;;;6779215;26;19925;-60
2024/04/20 06:35:03;;;;;;;;;;;;;;;;;;6778292;26;19924;-61
2024/04/20 06:38:10;;;;;;;;;;;;;;;;;;6779162;26;19924;-60
2024/04/20 06:41:16;;;;;;;;;;;;;;;;;;6779522;26;20264;-60
2024/04/20 06:44:21;;;;;;;;;;;;;;;;;;6779983;26;20643;-59
2024/04/20 06:47:26;;;;;;;;;;;;;;;;;;6779198;26;19994;-59
2024/04/20 06:50:32;;;;;;;;;;;;;;;;;;6778573;26;19929;-60
2024/04/20 06:53:39;;;;;;;;;;;;;;;;;;6778311;26;19925;-60
2024/04/20 06:56:45;;;;;;;;;;;;;;;;;;6778447;26;20144;-60
2024/04/20 06:59:50;;;;;;;;;;;;;;;;;;6777491;26;19932;-60
2024/04/20 07:02:56;;;;;;;;;;;;;;;;;;6777697;26;20025;-60
2024/04/20 07:06:01;;;;;;;;;;;;;;;;;;6777973;26;19959;-60
2024/04/20 07:09:10;;;;;;;;;;;;;;;;;;6777222;26;19924;-61
2024/04/20 07:12:15;;;;;;;;;;;;;;;;;;6820185;26;20006;-60
2024/04/20 07:15:20;;;;;;;;;;;;;;;;;;6826775;26;19931;-61
2024/04/20 07:18:25;;;;;;;;;;;;;;;;;;6828217;26;20564;-60
2024/04/20 07:21:31;;;;;;;;;;;;;;;;;;6796248;26;19923;-61
2024/04/20 07:24:39;;;;;;;;;;;;;;;;;;6801730;26;19931;-59
2024/04/20 07:27:45;;;;;;;;;;;;;;;;;;6782518;26;19959;-61
2024/04/20 07:30:51;;;;;;;;;;;;;;;;;;6782905;26;19924;-60
2024/04/20 07:33:57;;;;;;;;;;;;;;;;;;6782087;26;19931;-60
2024/04/20 07:37:03;;;;;;;;;;;;;;;;;;6783074;26;19925;-59
2024/04/20 07:40:12;;;;;;;;;;;;;;;;;;6781814;26;19931;-60
2024/04/20 07:43:17;;;;;;;;;;;;;;;;;;6780943;26;19925;-60
2024/04/20 07:46:22;;;;;;;;;;;;;;;;;;6781681;26;19924;-60
2024/04/20 07:49:28;;;;;;;;;;;;;;;;;;6781929;26;20602;-60
2024/04/20 07:52:33;;;;;;;;;;;;;;;;;;6783140;26;19925;-61
2024/04/20 07:55:41;;;;;;;;;;;;;;;;;;6781225;26;20040;-61
2024/04/20 07:58:46;;;;;;;;;;;;;;;;;;6781663;26;19931;-61
2024/04/20 08:01:51;;;;;;;;;;;;;;;;;;6782138;26;19924;-60
2024/04/20 08:04:57;;;;;;;;;;;;;;;;;;6781303;26;20048;-60
2024/04/20 08:08:03;;;;;;;;;;;;;;;;;;6781658;26;20019;-59
2024/04/20 08:11:10;;;;;;;;;;;;;;;;;;6806687;26;19931;-61
2024/04/20 08:14:16;;;;;;;;;;;;;;;;;;6826393;26;19955;-60
2024/04/20 08:17:21;;;;;;;;;;;;;;;;;;6825762;26;19924;-60
2024/04/20 08:20:26;;;;;;;;;;;;;;;;;;6826720;26;19931;-60
2024/04/20 08:23:31;;;;;;;;;;;;;;;;;;6817354;26;19935;-60
2024/04/20 08:26:39;;;;;;;;;;;;;;;;;;6780157;26;19932;-60
2024/04/20 08:29:45;;;;;;;;;;;;;;;;;;6780790;26;19932;-60
2024/04/20 08:32:50;;;;;;;;;;;;;;;;;;6780764;26;19932;-62
2024/04/20 08:35:55;;;;;;;;;;;;;;;;;;6781206;26;19925;-61
2024/04/20 08:39:00;;;;;;;;;;;;;;;;;;6782084;26;19925;-61
2024/04/20 08:42:10;;;;;;;;;;;;;;;;;;6782270;26;20021;-60
2024/04/20 08:45:19;;;;;;;;;;;;;;;;;;6780700;26;20114;-59
2024/04/20 08:48:25;;;;;;;;;;;;;;;;;;6782107;26;20168;-60
2024/04/20 08:51:31;;;;;;;;;;;;;;;;;;6781145;26;19932;-59
2024/04/20 08:54:37;;;;;;;;;;;;;;;;;;6780802;26;20188;-60
2024/04/20 08:57:46;;;;;;;;;;;;;;;;;;6781063;26;19932;-59
2024/04/20 09:00:52;;;;;;;;;;;;;;;;;;6780144;26;19942;-59
2024/04/20 09:03:58;;;;;;;;;;;;;;;;;;6780206;26;20267;-59
2024/04/20 09:07:03;;;;;;;;;;;;;;;;;;6781520;26;19948;-59
2024/04/20 09:10:09;;;;;;;;;;;;;;;;;;6791629;26;19931;-59
2024/04/20 09:13:18;;;;;;;;;;;;;;;;;;6825888;26;19923;-59
2024/04/20 09:16:23;;;;;;;;;;;;;;;;;;6825724;26;19928;-59
2024/04/20 09:19:29;;;;;;;;;;;;;;;;;;6825919;26;19931;-60
2024/04/20 09:22:35;;;;;;;;;;;;;;;;;;6826347;26;19924;-60
2024/04/20 09:25:40;;;;;;;;;;;;;;;;;;6785136;26;19927;-61
2024/04/20 09:28:48;;;;;;;;;;;;;;;;;;6780630;26;19932;-60
2024/04/20 09:31:54;;;;;;;;;;;;;;;;;;6781124;26;19978;-60
2024/04/20 09:34:59;;;;;;;;;;;;;;;;;;6780529;26;19931;-60
2024/04/20 09:38:05;;;;;;;;;;;;;;;;;;6779214;26;19924;-60
2024/04/20 09:41:10;;;;;;;;;;;;;;;;;;6781336;26;19932;-61
2024/04/20 09:44:18;;;;;;;;;;;;;;;;;;6780211;26;20010;-61
2024/04/20 09:47:24;;;;;;;;;;;;;;;;;;6780374;26;20124;-59
2024/04/20 09:50:30;;;;;;;;;;;;;;;;;;6747729;26;20024;-59
2024/04/20 09:53:36;;;;;;;;;;;;;;;;;;6779409;26;19952;-60
2024/04/20 09:56:41;;;;;;;;;;;;;;;;;;6779943;26;20199;-60
2024/04/20 09:59:49;;;;;;;;;;;;;;;;;;6779358;26;19924;-61
2024/04/20 10:02:55;;;;;;;;;;;;;;;;;;6779582;26;20004;-60
2024/04/20 10:06:01;;;;;;;;;;;;;;;;;;6779982;26;20021;-59
2024/04/20 10:09:07;;;;;;;;;;;;;;;;;;6772016;26;20011;-60
2024/04/20 10:12:12;;;;;;;;;;;;;;;;;;6821909;26;19924;-60
2024/04/20 10:15:20;;;;;;;;;;;;;;;;;;6824437;26;19924;-59
2024/04/20 10:18:25;;;;;;;;;;;;;;;;;;6824007;26;20094;-59
2024/04/20 10:21:31;;;;;;;;;;;;;;;;;;6823936;26;20065;-59
2024/04/20 10:24:36;;;;;;;;;;;;;;;;;;6799277;26;19929;-60
2024/04/20 10:27:41;;;;;;;;;;;;;;;;;;6779988;26;19928;-60
2024/04/20 10:30:54;;;;;;;;;;;;;;;;;;6779080;26;20132;-60
2024/04/20 10:34:00;;;;;;;;;;;;;;;;;;6779156;26;19924;-60
2024/04/20 10:37:08;;;;;;;;;;;;;;;;;;6778753;26;20566;-60
2024/04/20 10:40:14;;;;;;;;;;;;;;;;;;6778584;26;19929;-61
2024/04/20 10:43:21;;;;;;;;;;;;;;;;;;6778311;26;19925;-61
2024/04/20 10:46:28;;;;;;;;;;;;;;;;;;6778409;26;19999;-59
2024/04/20 10:49:34;;;;;;;;;;;;;;;;;;6749300;26;20126;-59
2024/04/20 10:52:39;;;;;;;;;;;;;;;;;;6783794;26;20032;-61
2024/04/20 10:55:44;;;;;;;;;;;;;;;;;;6783411;26;19924;-60
2024/04/20 10:58:49;;;;;;;;;;;;;;;;;;6751867;26;19950;-59
2024/04/20 11:01:57;;;;;;;;;;;;;;;;;;6782281;26;19981;-59
2024/04/20 11:05:03;;;;;;;;;;;;;;;;;;6782007;26;20111;-59
2024/04/20 11:08:09;;;;;;;;;;;;;;;;;;6782210;26;19925;-60
2024/04/20 11:11:16;;;;;;;;;;;;;;;;;;6811710;26;19924;-61
2024/04/20 11:14:21;;;;;;;;;;;;;;;;;;6796066;26;19923;-61
2024/04/20 11:17:29;;;;;;;;;;;;;;;;;;6828055;26;19924;-61
2024/04/20 11:20:35;;;;;;;;;;;;;;;;;;6824787;26;19924;-60
2024/04/20 11:23:44;;;;;;;;;;;;;;;;;;6777185;26;19924;-60
2024/04/20 11:26:53;;;;;;;;;;;;;;;;;;6799718;26;19924;-60
2024/04/20 11:30:00;;;;;;;;;;;;;;;;;;6827095;26;19924;-60
2024/04/20 11:33:08;;;;;;;;;;;;;;;;;;6826696;26;19940;-61
2024/04/20 11:36:16;;;;;;;;;;;;;;;;;;6827996;26;19928;-60
2024/04/20 11:39:21;;;;;;;;;;;;;;;;;;6828865;26;20111;-60
2024/04/20 11:42:27;;;;;;;;;;;;;;;;;;6828842;26;19924;-61
2024/04/20 11:45:32;;;;;;;;;;;;;;;;;;6827335;26;19924;-61
2024/04/20 11:48:40;;;;;;;;;;;;;;;;;;6826264;26;19924;-61
2024/04/20 11:55:21;;;;;;;;;;;;;;;;;;6793196;26;19955;-62
2024/04/20 11:58:27;;;;;;;;;;;;;;;;;;6827280;26;19924;-60
2024/04/20 12:01:32;;;;;;;;;;;;;;;;;;6828401;26;20003;-61
2024/04/20 12:04:40;;;;;;;;;;;;;;;;;;6827511;26;19931;-64
2024/04/20 12:07:46;;;;;;;;;;;;;;;;;;6830016;26;20117;-64
2024/04/20 12:10:51;;;;;;;;;;;;;;;;;;6774281;26;19924;-59
2024/04/20 12:13:56;;;;;;;;;;;;;;;;;;6782076;26;20017;-60
2024/04/20 12:17:01;;;;;;;;;;;;;;;;;;6782426;26;19931;-60
2024/04/20 12:20:10;;;;;;;;;;;;;;;;;;6781805;26;19931;-59
2024/04/20 12:23:15;;;;;;;;;;;;;;;;;;6786423;26;19925;-60
2024/04/20 12:26:21;;;;;;;;;;;;;;;;;;6828546;26;19977;-60
2024/04/20 12:29:27;;;;;;;;;;;;;;;;;;6827875;26;19931;-60
2024/04/20 12:32:32;;;;;;;;;;;;;;;;;;6827427;26;19924;-60
2024/04/20 12:35:41;;;;;;;;;;;;;;;;;;6828111;26;20336;-59
2024/04/20 12:38:47;;;;;;;;;;;;;;;;;;6827537;26;20336;-60
2024/04/20 12:41:52;;;;;;;;;;;;;;;;;;6827697;26;20165;-60
2024/04/20 12:45:01;;;;;;;;;;;;;;;;;;6827492;26;19924;-60
2024/04/20 12:48:09;;;;;;;;;;;;;;;;;;6827407;26;19923;-60
2024/04/20 12:51:17;;;;;;;;;;;;;;;;;;6828341;26;19935;-60
2024/04/20 12:54:22;;;;;;;;;;;;;;;;;;6827846;26;19924;-60
2024/04/20 12:57:28;;;;;;;;;;;;;;;;;;6828469;26;20006;-60
2024/04/20 13:00:33;;;;;;;;;;;;;;;;;;6827737;26;19931;-61
2024/04/20 13:03:38;;;;;;;;;;;;;;;;;;6827131;26;19931;-60
2024/04/20 13:06:46;;;;;;;;;;;;;;;;;;6827681;26;20108;-60
2024/04/20 13:09:56;;;;;;;;;;;;;;;;;;6788699;26;19924;-60
2024/04/20 13:13:01;;;;;;;;;;;;;;;;;;6793609;26;19930;-61
2024/04/20 13:16:07;;;;;;;;;;;;;;;;;;6827416;26;19954;-60
2024/04/20 13:19:12;;;;;;;;;;;;;;;;;;6826788;26;19931;-60
2024/04/20 13:22:20;;;;;;;;;;;;;;;;;;6811853;26;19931;-60
2024/04/20 13:25:25;;;;;;;;;;;;;;;;;;6757517;26;19925;-60
2024/04/20 13:28:36;;;;;;;;;;;;;;;;;;6781413;26;19924;-60
2024/04/20 13:31:41;;;;;;;;;;;;;;;;;;6781581;26;19924;-60
2024/04/20 13:34:47;;;;;;;;;;;;;;;;;;6780816;26;19932;-60
2024/04/20 13:37:55;;;;;;;;;;;;;;;;;;6780489;26;19951;-61
2024/04/20 13:41:00;;;;;;;;;;;;;;;;;;6781021;26;19975;-60
2024/04/20 13:44:06;;;;;;;;;;;;;;;;;;6780305;26;19925;-60
2024/04/20 13:47:12;;;;;;;;;;;;;;;;;;6780902;26;20029;-60
2024/04/20 13:50:17;;;;;;;;;;;;;;;;;;6748933;26;19925;-61
2024/04/20 13:53:25;;;;;;;;;;;;;;;;;;6770970;26;20072;-60
2024/04/20 13:56:31;;;;;;;;;;;;;;;;;;6782732;26;20129;-60
2024/04/20 13:59:36;;;;;;;;;;;;;;;;;;6781254;26;19928;-60
2024/04/20 14:02:42;;;;;;;;;;;;;;;;;;6780487;26;19935;-60
2024/04/20 14:05:47;;;;;;;;;;;;;;;;;;6780226;26;19952;-60
2024/04/20 14:08:55;;;;;;;;;;;;;;;;;;6776497;26;19932;-60
2024/04/20 14:12:01;;;;;;;;;;;;;;;;;;6818945;26;20059;-60
2024/04/20 14:15:07;;;;;;;;;;;;;;;;;;6824495;26;19924;-59
2024/04/20 14:18:12;;;;;;;;;;;;;;;;;;6824463;26;19924;-60
2024/04/20 14:21:17;;;;;;;;;;;;;;;;;;6825667;26;20204;-63
2024/04/20 14:24:25;;;;;;;;;;;;;;;;;;6826162;26;19931;-60
2024/04/20 14:27:31;;;;;;;;;;;;;;;;;;6830420;26;20234;-61
2024/04/20 14:30:36;;;;;;;;;;;;;;;;;;6828950;26;19931;-60
2024/04/20 14:33:41;;;;;;;;;;;;;;;;;;6829042;26;20112;-60
2024/04/20 14:36:47;;;;;;;;;;;;;;;;;;6828686;26;20006;-60
2024/04/20 14:39:56;;;;;;;;;;;;;;;;;;6827829;26;19924;-60
2024/04/20 14:43:01;;;;;;;;;;;;;;;;;;6828467;26;19923;-60
2024/04/20 14:46:06;;;;;;;;;;;;;;;;;;6829208;26;20193;-60
2024/04/20 14:49:12;;;;;;;;;;;;;;;;;;6829038;26;20017;-60
2024/04/20 14:52:17;;;;;;;;;;;;;;;;;;6828976;26;19924;-61
2024/04/20 14:55:25;;;;;;;;;;;;;;;;;;6828995;26;19924;-60
2024/04/20 14:58:30;;;;;;;;;;;;;;;;;;6828545;26;19931;-60
2024/04/20 15:01:41;;;;;;;;;;;;;;;;;;6827889;26;19931;-61
2024/04/20 15:04:47;;;;;;;;;;;;;;;;;;6827922;26;19931;-61
2024/04/20 15:07:52;;;;;;;;;;;;;;;;;;6828726;26;19935;-60
2024/04/20 15:11:15;;;;;;;;;;;;;;;;;;6828390;26;20166;-61
2024/04/20 15:14:24;;;;;;;;;;;;;;;;;;6828469;26;19931;-61
2024/04/20 15:17:29;;;;;;;;;;;;;;;;;;6797483;26;19931;-60
2024/04/20 15:20:35;;;;;;;;;;;;;;;;;;6828520;26;19923;-60
2024/04/20 15:23:43;;;;;;;;;;;;;;;;;;6827651;26;19930;-60
2024/04/20 15:26:51;;;;;;;;;;;;;;;;;;6828862;26;19924;-60
2024/04/20 15:29:58;;;;;;;;;;;;;;;;;;6795974;26;20016;-60
2024/04/20 15:33:04;;;;;;;;;;;;;;;;;;6827176;26;19924;-60
2024/04/20 15:36:12;;;;;;;;;;;;;;;;;;6827310;26;20283;-60
2024/04/20 15:39:20;;;;;;;;;;;;;;;;;;6827572;26;20109;-60
2024/04/20 15:42:25;;;;;;;;;;;;;;;;;;6828015;26;20014;-61
2024/04/20 15:45:33;;;;;;;;;;;;;;;;;;6827356;26;20184;-59
2024/04/20 15:48:38;;;;;;;;;;;;;;;;;;6827417;26;19931;-60
2024/04/20 15:51:44;;;;;;;;;;;;;;;;;;6828553;26;20201;-59
2024/04/20 15:54:49;;;;;;;;;;;;;;;;;;6827178;26;20225;-59
2024/04/20 15:57:54;;;;;;;;;;;;;;;;;;6795980;26;19931;-60
2024/04/20 16:01:04;;;;;;;;;;;;;;;;;;6827972;26;20105;-59
2024/04/20 16:04:09;;;;;;;;;;;;;;;;;;6827143;26;19924;-59
2024/04/20 16:07:15;;;;;;;;;;;;;;;;;;6828292;26;19953;-59
2024/04/20 16:10:34;;;;;;;;;;;;;;;;;;6826289;26;20239;-60
2024/04/20 16:13:39;;;;;;;;;;;;;;;;;;6826462;26;19979;-60
2024/04/20 16:16:47;;;;;;;;;;;;;;;;;;6827570;26;20013;-60
2024/04/20 16:19:53;;;;;;;;;;;;;;;;;;6827746;26;19923;-60
2024/04/20 16:22:58;;;;;;;;;;;;;;;;;;6826759;26;20117;-60
2024/04/20 16:26:04;;;;;;;;;;;;;;;;;;6780582;26;19925;-59
2024/04/20 16:29:09;;;;;;;;;;;;;;;;;;6781194;26;20136;-60
2024/04/20 16:32:17;;;;;;;;;;;;;;;;;;6766507;26;19931;-60
2024/04/20 16:35:22;;;;;;;;;;;;;;;;;;6781029;26;19928;-60
2024/04/20 16:38:29;;;;;;;;;;;;;;;;;;6781581;26;19984;-60
2024/04/20 16:41:34;;;;;;;;;;;;;;;;;;6781619;26;20128;-60
2024/04/20 16:44:39;;;;;;;;;;;;;;;;;;6780785;26;19931;-60
2024/04/20 16:47:48;;;;;;;;;;;;;;;;;;6748580;26;19925;-60
2024/04/20 16:50:59;;;;;;;;;;;;;;;;;;6781506;26;20122;-61
2024/04/20 16:54:03;;;;;;;;;;;;;;;;;;6780681;26;19925;-60
2024/04/20 16:57:08;;;;;;;;;;;;;;;;;;6780702;26;19931;-60
2024/04/20 17:00:11;;;;;;;;;;;;;;;;;;6780785;26;19931;-60
2024/04/20 17:03:19;;;;;;;;;;;;;;;;;;6780480;26;19931;-60
2024/04/20 17:06:25;;;;;;;;;;;;;;;;;;6780738;26;19952;-60
2024/04/20 17:09:32;;;;;;;;;;;;;;;;;;6780429;26;19924;-60
2024/04/20 17:12:37;;;;;;;;;;;;;;;;;;6825894;26;19927;-59
2024/04/20 17:15:39;;;;;;;;;;;;;;;;;;6825771;26;20120;-60
2024/04/20 17:18:48;;;;;;;;;;;;;;;;;;6825291;26;19931;-60
2024/04/20 17:21:50;;;;;;;;;;;;;;;;;;6825575;26;20106;-60
2024/04/20 17:24:56;;;;;;;;;;;;;;;;;;6824945;26;19923;-60
2024/04/20 17:27:58;;;;;;;;;;;;;;;;;;6827199;26;20506;-60
2024/04/20 17:31:04;;;;;;;;;;;;;;;;;;6826473;26;20125;-61
2024/04/20 17:34:09;;;;;;;;;;;;;;;;;;6825430;26;20970;-60
2024/04/20 17:37:14;;;;;;;;;;;;;;;;;;6826345;26;19924;-60
2024/04/20 17:40:17;;;;;;;;;;;;;;;;;;6826241;26;20159;-60
2024/04/20 17:43:22;;;;;;;;;;;;;;;;;;6825573;26;19950;-61
2024/04/20 17:46:25;;;;;;;;;;;;;;;;;;6825704;26;19924;-59
2024/04/20 17:49:33;;;;;;;;;;;;;;;;;;6825313;26;19924;-60
2024/04/20 17:52:36;;;;;;;;;;;;;;;;;;6825990;26;19948;-60
2024/04/20 17:55:42;;;;;;;;;;;;;;;;;;6826467;26;19931;-61
2024/04/20 17:58:47;;;;;;;;;;;;;;;;;;6825099;26;19931;-60
2024/04/20 18:01:50;;;;;;;;;;;;;;;;;;6825044;26;19982;-60
2024/04/20 18:04:57;;;;;;;;;;;;;;;;;;6824603;26;19924;-60
2024/04/20 18:08:00;;;;;;;;;;;;;;;;;;6825047;26;19931;-59
2024/04/20 18:11:14;;;;;;;;;;;;;;;;;;6797802;26;20003;-60
2024/04/20 18:14:20;;;;;;;;;;;;;;;;;;6778591;26;20015;-60
2024/04/20 18:17:23;;;;;;;;;;;;;;;;;;6780104;26;20768;-60
2024/04/20 18:20:31;;;;;;;;;;;;;;;;;;6779025;26;19927;-59
2024/04/20 18:23:33;;;;;;;;;;;;;;;;;;6788680;26;20145;-59
2024/04/20 18:26:39;;;;;;;;;;;;;;;;;;6824754;26;19924;-59
2024/04/20 18:29:45;;;;;;;;;;;;;;;;;;6824384;26;19935;-60
2024/04/20 18:32:47;;;;;;;;;;;;;;;;;;6824398;26;20235;-60
2024/04/20 18:35:59;;;;;;;;;;;;;;;;;;6825227;26;20144;-61
2024/04/20 18:39:02;;;;;;;;;;;;;;;;;;6824549;26;19955;-60
2024/04/20 18:42:08;;;;;;;;;;;;;;;;;;6825245;26;19924;-60
2024/04/20 18:45:13;;;;;;;;;;;;;;;;;;6824384;26;19935;-61
2024/04/20 18:48:15;;;;;;;;;;;;;;;;;;6792637;26;19947;-59
2024/04/20 18:51:23;;;;;;;;;;;;;;;;;;6824961;26;19924;-60
2024/04/20 18:54:26;;;;;;;;;;;;;;;;;;6824429;26;20124;-59
2024/04/20 18:57:31;;;;;;;;;;;;;;;;;;6824480;26;20212;-60
2024/04/20 19:00:34;;;;;;;;;;;;;;;;;;6823804;26;20131;-61
2024/04/20 19:03:41;;;;;;;;;;;;;;;;;;6823803;26;20191;-60
2024/04/20 19:06:47;;;;;;;;;;;;;;;;;;6823751;26;20105;-61
2024/04/20 19:09:52;;;;;;;;;;;;;;;;;;6817728;26;19924;-61
2024/04/20 19:12:54;;;;;;;;;;;;;;;;;;6782457;26;20029;-62
2024/04/20 19:16:00;;;;;;;;;;;;;;;;;;6783775;26;20007;-60
2024/04/20 19:19:03;;;;;;;;;;;;;;;;;;6782959;26;20061;-60
2024/04/20 19:22:11;;;;;;;;;;;;;;;;;;6783306;26;19928;-60
2024/04/20 19:25:14;;;;;;;;;;;;;;;;;;6816562;26;19935;-63
2024/04/20 19:28:19;;;;;;;;;;;;;;;;;;6828044;26;19931;-59
2024/04/20 19:31:24;;;;;;;;;;;;;;;;;;6828400;26;20022;-60
2024/04/20 19:34:29;;;;;;;;;;;;;;;;;;6827692;26;19924;-60
2024/04/20 19:37:35;;;;;;;;;;;;;;;;;;6827911;26;19958;-60
2024/04/20 19:40:40;;;;;;;;;;;;;;;;;;6827175;26;20003;-60
2024/04/20 19:43:48;;;;;;;;;;;;;;;;;;6795984;26;20005;-61
2024/04/20 19:46:51;;;;;;;;;;;;;;;;;;6828657;26;20420;-60
2024/04/20 19:49:56;;;;;;;;;;;;;;;;;;6827672;26;20121;-60
2024/04/20 19:53:01;;;;;;;;;;;;;;;;;;6826869;26;20080;-61
2024/04/20 19:56:07;;;;;;;;;;;;;;;;;;6796971;26;19924;-60
2024/04/20 19:59:09;;;;;;;;;;;;;;;;;;6828438;26;19924;-60
2024/04/20 20:02:15;;;;;;;;;;;;;;;;;;6827782;26;20109;-60
2024/04/20 20:05:20;;;;;;;;;;;;;;;;;;6827341;26;19927;-60
2024/04/20 20:08:28;;;;;;;;;;;;;;;;;;6826780;26;19924;-60
2024/04/20 20:11:30;;;;;;;;;;;;;;;;;;6762144;26;19929;-60
2024/04/20 20:14:35;;;;;;;;;;;;;;;;;;6781542;26;19960;-60
2024/04/20 20:17:38;;;;;;;;;;;;;;;;;;6781939;26;19924;-60
2024/04/20 20:20:44;;;;;;;;;;;;;;;;;;6780833;26;19948;-60
2024/04/20 20:23:49;;;;;;;;;;;;;;;;;;6790457;26;20043;-60
2024/04/20 20:26:54;;;;;;;;;;;;;;;;;;6828389;26;19924;-61
2024/04/20 20:29:57;;;;;;;;;;;;;;;;;;6827305;26;19924;-60
2024/04/20 20:33:02;;;;;;;;;;;;;;;;;;6826793;26;19931;-60
2024/04/20 20:36:05;;;;;;;;;;;;;;;;;;6794653;26;19924;-60
2024/04/20 20:39:15;;;;;;;;;;;;;;;;;;6826482;26;20162;-60
2024/04/20 20:42:17;;;;;;;;;;;;;;;;;;6827362;26;20094;-60
2024/04/20 20:45:22;;;;;;;;;;;;;;;;;;6827165;26;20039;-61
2024/04/20 20:48:25;;;;;;;;;;;;;;;;;;6826691;26;19931;-60
2024/04/20 20:51:31;;;;;;;;;;;;;;;;;;6826602;26;19924;-61
2024/04/20 20:54:36;;;;;;;;;;;;;;;;;;6826152;26;20020;-61
2024/04/20 20:57:41;;;;;;;;;;;;;;;;;;6827285;26;19924;-60
2024/04/20 21:00:44;;;;;;;;;;;;;;;;;;6826581;26;19924;-60
2024/04/20 21:03:49;;;;;;;;;;;;;;;;;;6826546;26;19931;-60
2024/04/20 21:06:52;;;;;;;;;;;;;;;;;;6827009;26;19931;-60
2024/04/20 21:10:00;;;;;;;;;;;;;;;;;;6818176;26;19932;-62
2024/04/20 21:13:03;;;;;;;;;;;;;;;;;;6781992;26;20129;-60